Nashville, Tennessee
Traffic Map
Current Weather Conditions
Nashville, Tennessee
Overcast
Overcast
40°
Feels Like: 33°
Wind Chill: 33° Ceiling: 3900
Heat Index: 40° Visibility: 10mi
Dew Point: 30° Wind: 12mph
Humidity: 68% Direction: 340° (NNW)
Pressure: 30.34in Gusts: 0mph
Raw Report DataKBNA 300553Z 34010KT 10SM SCT026 OVC039 04/M01 A3034 RMK AO2 SLP272 T00441011 10067 20044 401940044 51010
Traffic Incident Summary
Active as of:
Severity:
Category:
InformationThere was an issue retrieving the traffic information for this location. Please try a different location or try again shortly.
Advertisements
Track Severe Weather on mobile